Latest Weather Observations for Roma

IDQ60801

Issued at 7:32 am EST Saturday 31 January 2015 (issued every 30 minutes, with the page automatically refreshed every 10 minutes)

About weather observations | Map of weather stations | Latest weather observations for QLD | Other Formats
Station Details ID: 043091 Name: ROMA AIRPORT Lat: -26.55 Lon: 148.77 Height: 307.38 m
Data from the previous 72 hours. | See also: Recent months at Roma
Date/Time
EST
Temp
°C
App
Temp
°C
Dew
Point
Rel
Hum
%
Delta-T
°C
Wind Press
QNH
hPa
Press
MSL
hPa
Rain
since 9 am
mm
Dir
 
Spd
km/h
Gust
km/h
Spd
kts
Gust
kts
31/07:30am 24.9 24.2 17.4 63 4.7 N 17 24 9 13 1008.8 1006.7 0.0
31/07:00am 22.5 21.7 17.0 71 3.4 NNE 17 20 9 11 1008.9 1006.8 0.0
31/06:30am 20.5 20.6 16.5 78 2.5 NNE 11 13 6 7 1008.9 1006.8 0.0
31/06:00am 18.3 18.6 16.1 87 1.3 NNW 9 11 5 6 1008.7 1006.6 0.0
31/05:30am 18.1 18.1 15.2 83 1.7 WNW 9 13 5 7 1008.4 1006.3 0.0
31/05:00am 18.8 18.3 16.0 84 1.7 W 13 28 7 15 1008.0 1005.9 0.0
31/04:30am 18.1 17.4 15.4 84 1.6 N 13 15 7 8 1007.1 1005.0 0.0
31/04:00am 18.0 17.2 15.1 83 1.7 N 13 15 7 8 1006.9 1004.8 0.0
31/03:30am 17.9 17.1 15.0 83 1.7 N 13 15 7 8 1006.6 1004.6 0.0
31/03:00am 18.0 17.0 14.7 81 1.9 N 13 15 7 8 1006.4 1004.4 0.0
31/02:30am 18.2 16.9 14.9 81 1.9 N 15 15 8 8 1006.3 1004.3 0.0
31/02:00am 18.3 17.8 15.0 81 2.0 N 11 13 6 7 1006.3 1004.3 0.0
31/01:30am 18.5 17.6 14.8 79 2.2 N 13 15 7 8 1006.5 1004.5 0.0
31/01:00am 18.8 17.5 14.7 77 2.4 N 15 17 8 9 1006.5 1004.5 0.0
31/12:30am 19.2 18.0 15.1 77 2.4 N 15 17 8 9 1006.9 1004.8 0.0
31/12:00am 19.5 18.4 15.4 77 2.5 NNE 15 17 8 9 1007.2 1005.1 0.0
 
Date/Time
EST
Temp
°C
App
Temp
°C
Dew
Point
Rel
Hum
%
Delta-T
°C
Wind Press
QNH
hPa
Press
MSL
hPa
Rain
since 9 am
mm
Dir
 
Spd
km/h
Gust
km/h
Spd
kts
Gust
kts
30/11:30pm 19.7 18.6 15.4 76 2.6 N 15 15 8 8 1007.6 1005.5 0.0
30/11:00pm 19.8 18.7 15.4 76 2.6 N 15 15 8 8 1007.8 1005.7 0.0
30/10:30pm 20.1 19.1 15.7 76 2.7 NNE 15 15 8 8 1007.9 1005.8 0.0
30/10:00pm 20.3 19.8 15.9 76 2.7 N 13 15 7 8 1008.0 1005.9 0.0
30/09:30pm 20.4 20.4 16.2 77 2.6 N 11 11 6 6 1007.9 1005.8 0.0
30/09:14pm 21.1 21.3 16.7 76 2.7 NNE 11 13 6 7 1007.8 1005.7 0.0
30/09:00pm 21.5 22.1 16.7 74 3.0 NNE 9 11 5 6 1007.8 1005.7 0.0
30/08:51pm 21.7 21.8 16.4 72 3.3 N 11 13 6 7 1007.8 1005.7 0.0
30/08:30pm 21.7 22.2 16.6 73 3.1 N 9 11 5 6 1007.7 1005.6 0.0
30/08:00pm 23.1 23.9 17.3 70 3.6 N 9 9 5 5 1007.4 1005.3 0.0
30/07:30pm 24.0 25.3 17.5 67 4.1 NNE 7 9 4 5 1007.3 1005.2 0.0
30/07:00pm 26.2 26.1 15.0 50 6.9 NNE 9 9 5 5 1007.1 1005.0 0.0
30/06:30pm 28.0 27.3 13.1 39 8.9 N 9 11 5 6 1006.9 1004.8 0.0
30/06:00pm 29.6 29.0 11.6 33 10.6 NE 6 9 3 5 1006.6 1004.6 0.0
30/05:30pm 30.3 29.1 10.3 29 11.5 NNE 7 11 4 6 1006.5 1004.5 0.0
30/05:00pm 30.6 28.9 10.0 28 11.9 NNW 9 11 5 6 1006.5 1004.5 0.0
30/04:30pm 30.7 29.9 11.6 31 11.3 NNE 7 11 4 6 1006.5 1004.5 0.0
30/04:00pm 31.0 29.4 11.4 30 11.6 N 11 15 6 8 1006.7 1004.7 0.0
30/03:30pm 31.4 29.8 10.2 27 12.3 WNW 9 13 5 7 1007.1 1005.0 0.0
30/03:00pm 30.7 28.8 9.0 26 12.3 N 9 15 5 8 1007.5 1005.4 0.0
30/02:30pm 29.7 27.9 10.8 31 11.0 SSW 11 15 6 8 1007.7 1005.6 0.0
30/02:00pm 29.5 27.7 9.6 29 11.3 SSW 9 19 5 10 1008.0 1005.9 0.0
30/01:30pm 30.2 28.9 11.2 31 11.1 ESE 9 15 5 8 1008.4 1006.3 0.0
30/01:00pm 29.8 28.6 10.4 30 11.2 SE 7 11 4 6 1008.8 1006.7 0.0
30/12:30pm 29.9 28.1 10.9 31 11.0 S 11 20 6 11 1009.1 1007.0 0.0
30/12:00pm 29.0 27.7 11.1 33 10.4 SSW 9 22 5 12 1009.5 1007.5 0.0
30/11:30am 28.0 26.0 10.2 33 10.1 SSW 11 17 6 9 1009.9 1007.9 0.0
30/11:00am 28.9 27.6 10.1 31 10.7 S 7 15 4 8 1010.1 1008.1 0.0
30/10:30am 28.1 27.6 12.8 38 9.1 S 7 13 4 7 1010.3 1008.2 0.0
30/10:00am 28.0 27.9 15.0 45 8.0 ENE 9 15 5 8 1010.5 1008.4 0.0
30/09:30am 27.0 27.0 15.1 48 7.3 ENE 9 13 5 7 1010.6 1008.5 0.0
30/09:00am 25.4 26.3 16.5 58 5.6 NNE 7 11 4 6 1010.6 1008.5 0.2
30/08:30am 24.6 26.1 18.1 67 4.1 NNE 7 11 4 6 1010.7 1008.6 0.2
30/08:00am 22.7 23.5 17.2 71 3.4 N 9 11 5 6 1010.6 1008.5 0.2
30/07:30am 21.9 24.4 17.3 75 2.9 CALM 0 6 0 3 1010.5 1008.4 0.2
30/07:00am 20.7 23.1 16.9 79 2.3 CALM 0 0 0 0 1010.5 1008.4 0.2
30/06:30am 18.4 20.4 16.9 91 0.9 N 2 6 1 3 1010.1 1008.1 0.2
30/06:00am 16.8 18.5 15.3 91 0.9 CALM 0 0 0 0 1009.9 1007.9 0.2
30/05:30am 16.6 17.2 15.3 92 0.8 NNE 6 11 3 6 1009.6 1007.6 0.2
30/05:00am 16.6 18.3 15.3 92 0.8 CALM 0 0 0 0 1009.2 1007.2 0.2
30/04:30am 16.7 18.4 15.1 90 0.9 CALM 0 0 0 0 1009.1 1007.0 0.2
30/04:00am 17.2 18.4 15.9 92 0.8 W 4 6 2 3 1009.0 1006.9 0.2
30/03:30am 17.5 17.8 16.0 91 0.9 SW 9 9 5 5 1008.9 1006.8 0.2
30/03:00am 17.5 19.4 15.7 89 1.1 CALM 0 7 0 4 1009.0 1006.9 0.2
30/02:30am 17.4 19.0 15.0 86 1.4 CALM 0 0 0 0 1009.1 1007.0 0.2
30/02:00am 18.2 20.3 16.2 88 1.2 CALM 0 0 0 0 1009.4 1007.4 0.2
30/01:30am 19.0 21.0 16.0 83 1.8 CALM 0 0 0 0 1009.6 1007.6 0.2
30/01:00am 19.6 21.8 16.4 82 2.0 CALM 0 0 0 0 1009.7 1007.7 0.2
30/12:30am 18.9 20.9 15.9 83 1.8 CALM 0 0 0 0 1009.9 1007.9 0.2
30/12:00am 19.6 21.0 16.3 81 2.0 NE 4 6 2 3 1010.0 1008.0 0.2
 
Date/Time
EST
Temp
°C
App
Temp
°C
Dew
Point
Rel
Hum
%
Delta-T
°C
Wind Press
QNH
hPa
Press
MSL
hPa
Rain
since 9 am
mm
Dir
 
Spd
km/h
Gust
km/h
Spd
kts
Gust
kts
29/11:30pm 20.2 22.2 16.0 77 2.5 CALM 0 0 0 0 1010.0 1008.0 0.2
29/11:00pm 20.8 21.5 16.0 74 2.9 SE 7 9 4 5 1009.9 1007.9 0.2
29/10:30pm 21.2 21.9 16.2 73 3.1 SE 7 9 4 5 1010.0 1008.0 0.2
29/10:00pm 21.5 21.8 16.0 71 3.4 ESE 9 13 5 7 1010.0 1008.0 0.2
29/09:30pm 21.9 22.2 16.0 69 3.6 ESE 9 13 5 7 1009.9 1007.9 0.2
29/09:00pm 22.6 22.2 16.2 67 3.9 SE 13 15 7 8 1009.7 1007.7 0.2
29/08:30pm 22.7 23.2 16.5 68 3.8 SE 9 13 5 7 1009.6 1007.6 0.2
29/08:00pm 22.9 23.1 16.7 68 3.8 SE 11 13 6 7 1009.3 1007.3 0.2
29/07:30pm 23.4 23.7 16.9 67 4.0 SE 11 11 6 6 1008.9 1006.8 0.2
29/07:00pm 24.9 24.5 15.2 54 5.9 SE 11 15 6 8 1008.6 1006.5 0.2
29/06:30pm 26.8 26.3 14.9 48 7.3 SE 11 15 6 8 1008.3 1006.2 0.2
29/06:00pm 27.6 26.7 14.9 45 7.8 ESE 13 17 7 9 1008.0 1005.9 0.2
29/05:30pm 27.9 25.6 14.2 43 8.3 SE 19 22 10 12 1007.6 1005.5 0.2
29/05:00pm 28.5 27.2 14.7 43 8.5 SE 15 20 8 11 1007.4 1005.3 0.2
29/04:30pm 28.8 28.0 16.0 45 8.0 ESE 15 22 8 12 1007.3 1005.2 0.2
29/04:00pm 28.9 28.2 15.4 44 8.4 SSE 13 30 7 16 1007.4 1005.3 0.2
29/03:30pm 28.7 27.6 16.3 47 7.8 SSE 17 30 9 16 1007.6 1005.5 0.2
29/03:00pm 27.6 25.9 14.6 45 7.9 SE 17 24 9 13 1007.8 1005.7 0.2
29/02:30pm 28.1 26.8 15.7 46 7.7 SE 17 24 9 13 1008.1 1006.0 0.2
29/02:00pm 28.3 28.3 17.2 51 7.1 SE 13 20 7 11 1008.3 1006.2 0.2
29/01:30pm 28.0 27.3 16.3 49 7.3 SE 15 26 8 14 1008.5 1006.4 0.2
29/01:00pm 27.8 27.6 17.6 53 6.5 SE 15 20 8 11 1008.9 1006.8 0.2
29/12:30pm 26.5 26.2 15.5 50 6.8 SSE 11 26 6 14 1009.2 1007.2 0.2
29/12:00pm 25.6 25.1 15.9 55 6.0 SSE 13 20 7 11 1009.4 1007.4 0.2
29/11:30am 25.7 26.0 17.1 59 5.4 S 11 17 6 9 1009.7 1007.7 0.2
29/11:00am 26.4 26.5 17.5 58 5.7 SE 13 19 7 10 1010.0 1008.0 0.2
29/10:30am 25.4 25.8 16.3 57 5.7 ENE 9 13 5 7 1010.4 1008.3 0.2
29/10:00am 25.2 26.2 16.9 60 5.2 E 7 13 4 7 1010.5 1008.4 0.2
29/09:30am 24.7 25.2 18.4 68 4.0 E 13 19 7 10 1010.5 1008.4 0.0
29/09:00am 23.1 23.5 16.4 66 4.1 ENE 9 17 5 9 1010.5 1008.4 16.6
29/08:30am 22.4 22.5 17.5 74 3.1 ESE 13 19 7 10 1010.4 1008.3 16.6
29/08:00am 22.2 22.2 17.3 74 3.1 ENE 13 19 7 10 1010.0 1008.0 16.6
29/07:30am 21.4 22.2 17.2 77 2.6 ESE 9 13 5 7 1010.0 1008.0 16.6
29/07:00am 20.4 20.9 16.6 79 2.3 SE 9 11 5 6 1009.8 1007.8 16.6
29/06:30am 19.5 20.5 16.9 85 1.6 E 7 9 4 5 1009.2 1007.2 16.6
29/06:00am 17.9 18.8 16.2 90 1.0 NE 6 7 3 4 1008.9 1006.8 16.6
29/05:30am 17.7 18.4 16.0 90 1.0 SE 7 9 4 5 1008.6 1006.5 16.6
29/05:00am 18.2 18.3 16.4 89 1.1 ENE 11 13 6 7 1008.2 1006.1 16.6
29/04:30am 18.4 18.5 16.6 89 1.1 ESE 11 15 6 8 1008.3 1006.2 16.6
29/04:00am 18.3 18.8 16.6 90 1.0 SE 9 13 5 7 1008.2 1006.1 16.6
29/03:30am 18.6 19.2 16.8 89 1.1 E 9 11 5 6 1007.9 1005.8 16.6
29/03:00am 19.1 19.4 17.1 88 1.2 SE 11 13 6 7 1008.0 1005.9 16.6
29/02:30am 19.4 19.5 17.4 88 1.2 ESE 13 19 7 10 1007.8 1005.7 16.6
29/02:00am 19.8 19.3 17.8 88 1.2 ESE 17 20 9 11 1007.9 1005.8 16.6
29/01:30am 19.8 19.7 17.9 89 1.2 ESE 15 20 8 11 1008.0 1005.9 16.6
29/01:00am 19.9 19.9 18.0 89 1.2 SE 15 19 8 10 1007.9 1005.8 16.6
29/12:30am 19.8 20.5 17.9 89 1.2 ESE 11 15 6 8 1008.1 1006.0 16.6
29/12:00am 20.1 21.4 18.4 90 1.1 E 9 11 5 6 1008.3 1006.2 16.6
 
Date/Time
EST
Temp
°C
App
Temp
°C
Dew
Point
Rel
Hum
%
Delta-T
°C
Wind Press
QNH
hPa
Press
MSL
hPa
Rain
since 9 am
mm
Dir
 
Spd
km/h
Gust
km/h
Spd
kts
Gust
kts
28/11:30pm 20.3 21.4 18.8 91 1.0 S 11 13 6 7 1008.3 1006.2 16.6
28/11:00pm 20.1 21.4 18.4 90 1.1 S 9 11 5 6 1008.3 1006.2 16.6
28/10:30pm 20.4 22.0 18.3 88 1.3 E 7 11 4 6 1008.3 1006.2 16.6
28/10:00pm 21.0 22.5 18.8 87 1.4 ESE 9 11 5 6 1008.2 1006.1 16.6
28/09:30pm 20.9 21.8 18.5 86 1.5 SE 11 15 6 8 1008.1 1006.0 16.6
28/09:00pm 21.2 21.0 18.4 84 1.8 SE 17 22 9 12 1007.8 1005.7 16.6
28/08:30pm 21.8 21.9 19.2 85 1.7 SSE 17 28 9 15 1007.8 1005.7 16.6
28/08:00pm 20.8 22.2 18.6 87 1.4 SE 9 11 5 6 1007.3 1005.2 16.6
28/07:30pm 21.2 22.6 18.6 85 1.6 SSE 9 13 5 7 1006.7 1004.7 16.6
28/07:00pm 21.7 22.6 18.5 82 2.0 SE 11 15 6 8 1006.3 1004.3 16.6
28/06:30pm 22.6 23.9 19.4 82 2.1 E 11 15 6 8 1005.9 1003.8 16.6
28/06:00pm 23.2 25.1 20.5 85 1.8 E 11 15 6 8 1006.0 1003.9 16.6
28/05:30pm 22.6 25.6 21.2 92 0.9 SE 7 13 4 7 1005.7 1003.6 16.6
28/05:00pm 22.0 25.4 21.0 94 0.7 ENE 4 9 2 5 1005.9 1003.8 16.6
28/04:46pm 21.7 23.7 20.7 94 0.7 ENE 11 20 6 11 1005.6 1003.5 16.6
28/04:30pm 21.2 22.5 20.2 94 0.7 SSE 13 24 7 13 1005.4 1003.3 16.2
28/04:29pm 21.2 22.5 20.2 94 0.7 SSE 13 24 7 13 1005.4 1003.3 16.2
28/04:17pm 20.8 17.5 19.3 91 1.0 SW 35 70 19 38 1005.6 1003.5 10.2
28/04:11pm 21.1 18.6 18.9 87 1.4 SW 30 70 16 38 1004.6 1002.5 2.4
28/04:10pm 21.4 19.7 19.0 86 1.5 SW 26 59 14 32 1004.7 1002.6 1.2
28/04:00pm 24.0 22.4 18.4 71 3.6 SSE 24 33 13 18 1004.9 1002.8 0.0
28/03:30pm 27.0 27.0 20.1 66 4.6 SE 20 32 11 17 1004.8 1002.7 0.0
28/03:00pm 26.2 26.4 19.3 65 4.5 SE 17 24 9 13 1004.8 1002.7 0.0
28/02:30pm 26.2 25.5 18.3 61 5.1 SE 19 26 10 14 1004.7 1002.6 0.0
28/02:00pm 25.7 26.5 19.1 67 4.3 SSE 13 19 7 10 1005.3 1003.2 0.0
28/01:30pm 24.4 24.8 19.0 72 3.5 SE 15 19 8 10 1005.8 1003.7 0.0
28/01:00pm 24.2 25.1 19.3 74 3.2 SE 13 17 7 9 1005.9 1003.8 0.0
28/12:30pm 23.9 24.4 19.2 75 3.0 SE 15 17 8 9 1006.1 1004.0 0.0
28/12:00pm 23.9 25.4 18.8 73 3.3 SE 9 13 5 7 1006.2 1004.1 0.0
28/11:30am 23.9 24.6 18.8 73 3.3 E 13 20 7 11 1006.4 1004.4 0.0
28/11:00am 23.5 23.8 18.8 75 3.0 E 15 20 8 11 1006.5 1004.5 0.0
28/10:32am 23.7 24.7 19.4 77 2.8 ENE 13 19 7 10 1006.6 1004.6 0.0
28/10:30am 23.7 24.5 19.0 75 3.0 ENE 13 19 7 10 1006.6 1004.6 0.0
28/10:00am 22.9 24.1 19.1 79 2.4 ENE 11 17 6 9 1006.6 1004.6 0.0
28/09:30am 22.0 22.7 18.8 82 2.0 ENE 13 17 7 9 1006.9 1004.8 0.0
28/09:00am 21.9 22.6 18.9 83 1.9 NE 13 17 7 9 1006.7 1004.7 13.4
28/08:30am 21.8 22.5 18.8 83 1.9 ENE 13 20 7 11 1006.4 1004.4 13.4
28/08:00am 21.5 22.1 18.7 84 1.8 ENE 13 20 7 11 1006.3 1004.3 13.4

Other Formats:

Comma delimited format used in spreadsheet applications
http://www.bom.gov.au/fwo/IDQ60801/IDQ60801.94515.axf

JavaScript Object Notation format (JSON) in row-major order
http://www.bom.gov.au/fwo/IDQ60801/IDQ60801.94515.json